createdAt,value
2023-02-19T00:01:44.988Z,9.20
2023-02-19T00:06:47.592Z,9.16
2023-02-19T00:11:49.440Z,9.15
2023-02-19T00:16:51.139Z,9.17
2023-02-19T00:21:53.885Z,9.15
2023-02-19T00:26:55.544Z,9.15
2023-02-19T00:32:31.038Z,9.05
2023-02-19T00:37:32.700Z,9.13
2023-02-19T00:42:34.421Z,9.12
2023-02-19T00:47:36.071Z,9.14
2023-02-19T00:52:37.824Z,9.15
2023-02-19T00:57:39.617Z,9.14
2023-02-19T01:02:41.465Z,9.02
2023-02-19T01:07:43.127Z,8.95
2023-02-19T01:12:44.785Z,8.62
2023-02-19T01:17:46.438Z,8.58
2023-02-19T01:22:48.093Z,8.54
2023-02-19T01:27:49.817Z,8.69
2023-02-19T01:32:51.529Z,8.70
2023-02-19T01:37:53.211Z,8.67
2023-02-19T01:42:59.544Z,8.66
2023-02-19T01:48:10.872Z,8.53
2023-02-19T01:53:17.310Z,8.67
2023-02-19T01:58:20.205Z,8.67
2023-02-19T02:03:48.953Z,8.56
2023-02-19T02:09:15.344Z,8.61
2023-02-19T02:14:24.763Z,8.45
2023-02-19T02:19:47.539Z,8.47
2023-02-19T02:25:39.495Z,8.43
2023-02-19T02:30:57.877Z,8.53
2023-02-19T02:36:08.180Z,8.63
2023-02-19T02:42:13.705Z,8.49
2023-02-19T02:47:35.406Z,8.69
2023-02-19T02:52:59.845Z,8.59
2023-02-19T02:58:02.670Z,8.68
2023-02-19T03:03:05.659Z,8.79
2023-02-19T03:08:15.355Z,8.70
2023-02-19T03:13:53.033Z,8.70
2023-02-19T03:19:17.986Z,8.57
2023-02-19T03:24:42.692Z,8.60
2023-02-19T03:29:46.371Z,8.59
2023-02-19T03:34:55.700Z,8.67
2023-02-19T03:39:57.776Z,8.59
2023-02-19T03:45:14.921Z,8.57
2023-02-19T03:50:29.536Z,8.56
2023-02-19T03:56:05.508Z,8.50
2023-02-19T04:01:19.947Z,8.39
2023-02-19T04:06:28.047Z,8.24
2023-02-19T04:11:32.231Z,8.23
2023-02-19T04:16:36.643Z,8.21
2023-02-19T04:21:40.928Z,8.36
2023-02-19T04:26:44.219Z,8.42
2023-02-19T04:31:45.958Z,8.48
2023-02-19T04:36:47.606Z,8.50
2023-02-19T04:41:49.263Z,8.48
2023-02-19T04:46:50.918Z,8.45
2023-02-19T04:51:52.553Z,8.53
2023-02-19T04:56:54.188Z,8.44
2023-02-19T05:01:57.592Z,8.51
2023-02-19T05:06:59.255Z,8.64
2023-02-19T05:12:00.909Z,8.65
2023-02-19T05:17:02.533Z,8.56
2023-02-19T05:22:04.231Z,8.64
2023-02-19T05:27:05.934Z,8.59
2023-02-19T05:32:07.627Z,8.50
2023-02-19T05:37:09.340Z,8.42
2023-02-19T05:42:13.643Z,8.53
2023-02-19T05:47:15.262Z,8.63
2023-02-19T05:52:16.980Z,8.64
2023-02-19T05:57:20.480Z,8.74
2023-02-19T06:02:22.130Z,8.81
2023-02-19T06:07:23.792Z,8.81
2023-02-19T06:12:25.457Z,8.88
2023-02-19T06:17:27.145Z,8.92
2023-02-19T06:22:28.817Z,8.85
2023-02-19T06:27:30.443Z,8.81
2023-02-19T06:32:32.131Z,8.97
2023-02-19T06:37:33.839Z,9.00
2023-02-19T06:42:35.500Z,9.08
2023-02-19T06:47:37.351Z,9.02
2023-02-19T06:52:38.985Z,9.05
2023-02-19T06:57:40.621Z,9.01
2023-02-19T07:02:42.231Z,8.93
2023-02-19T07:07:46.018Z,8.97
2023-02-19T07:12:47.674Z,9.07
2023-02-19T07:17:49.570Z,9.10
2023-02-19T07:22:53.306Z,9.07
2023-02-19T07:27:56.247Z,9.09
2023-02-19T07:33:00.655Z,9.11
2023-02-19T07:38:02.643Z,9.11
2023-02-19T07:43:05.529Z,9.15
2023-02-19T07:48:09.166Z,9.22
2023-02-19T07:53:12.799Z,9.43
2023-02-19T07:58:15.814Z,9.39
2023-02-19T08:03:18.882Z,9.44
2023-02-19T08:08:22.057Z,9.46
2023-02-19T08:13:29.014Z,9.70
2023-02-19T08:18:34.633Z,9.67
2023-02-19T08:23:37.535Z,9.77
2023-02-19T08:28:41.542Z,9.76
2023-02-19T08:33:44.319Z,9.82
2023-02-19T08:38:46.901Z,9.83
2023-02-19T08:43:50.948Z,9.82
2023-02-19T08:48:53.601Z,9.90
2023-02-19T08:53:56.627Z,9.80
2023-02-19T08:58:59.370Z,9.81
2023-02-19T09:04:02.710Z,9.63
2023-02-19T09:09:06.285Z,9.67
2023-02-19T09:14:09.520Z,9.61
2023-02-19T09:19:11.923Z,9.56
2023-02-19T09:24:14.620Z,9.64
2023-02-19T09:29:19.635Z,9.59
2023-02-19T09:34:22.116Z,9.53
2023-02-19T09:39:24.945Z,9.36
2023-02-19T09:44:42.518Z,9.59
2023-02-19T09:49:55.720Z,9.54
2023-02-19T09:55:02.732Z,9.65
2023-02-19T10:00:09.106Z,9.63
2023-02-19T10:05:17.627Z,9.63
2023-02-19T10:10:30.436Z,9.68
2023-02-19T10:15:42.136Z,9.78
2023-02-19T10:20:44.184Z,9.91
2023-02-19T10:25:52.052Z,10.32
2023-02-19T10:31:00.276Z,10.62
2023-02-19T10:36:37.680Z,10.79
2023-02-19T10:41:44.137Z,10.74
2023-02-19T10:46:49.606Z,11.11
2023-02-19T10:51:54.241Z,11.34
2023-02-19T10:57:18.173Z,11.87
2023-02-19T11:02:22.409Z,12.13
2023-02-19T11:07:27.314Z,11.76
2023-02-19T11:12:38.859Z,11.58
2023-02-19T11:17:46.497Z,11.72
2023-02-19T11:22:51.712Z,11.59
2023-02-19T11:28:25.644Z,11.40
2023-02-19T11:33:31.450Z,11.21
2023-02-19T11:38:37.076Z,11.26
2023-02-19T11:44:27.343Z,11.26
2023-02-19T11:49:40.166Z,11.72
2023-02-19T11:54:52.837Z,11.57
2023-02-19T12:00:14.264Z,11.59
2023-02-19T12:05:32.065Z,11.79
2023-02-19T12:11:05.812Z,11.58
2023-02-19T12:16:32.378Z,11.37
2023-02-19T12:22:00.891Z,11.29
2023-02-19T12:27:40.362Z,11.55
2023-02-19T12:33:04.033Z,11.43
2023-02-19T12:38:28.547Z,11.41
2023-02-19T12:43:34.737Z,11.69
2023-02-19T12:48:40.492Z,11.82
2023-02-19T12:53:54.405Z,11.55
2023-02-19T12:59:25.634Z,11.45
2023-02-19T13:04:42.247Z,11.55
2023-02-19T13:09:53.787Z,11.53
2023-02-19T13:15:07.590Z,11.44
2023-02-19T13:20:25.083Z,10.93
2023-02-19T13:25:45.995Z,10.53
2023-02-19T13:31:10.919Z,10.56
2023-02-19T13:36:18.942Z,10.96
2023-02-19T13:41:35.183Z,11.08
2023-02-19T13:46:42.983Z,11.14
2023-02-19T13:51:51.172Z,11.01
2023-02-19T13:57:29.232Z,10.94
2023-02-19T14:02:34.074Z,10.96
2023-02-19T14:07:35.808Z,11.03
2023-02-19T14:12:38.175Z,11.05
2023-02-19T14:17:39.904Z,10.86
2023-02-19T14:22:48.797Z,10.73
2023-02-19T14:27:53.229Z,10.61
2023-02-19T14:33:09.858Z,10.67
2023-02-19T14:38:54.855Z,10.61
2023-02-19T14:43:58.597Z,10.54
2023-02-19T14:49:38.814Z,10.31
2023-02-19T14:54:50.909Z,10.34
2023-02-19T14:59:59.419Z,10.33
2023-02-19T15:05:01.182Z,10.33
2023-02-19T15:10:05.994Z,10.13
2023-02-19T15:15:37.481Z,9.78
2023-02-19T15:20:39.793Z,9.92
2023-02-19T15:25:43.356Z,9.94
2023-02-19T15:30:45.100Z,9.70
2023-02-19T15:35:57.840Z,9.78
2023-02-19T15:41:02.918Z,9.76
2023-02-19T15:46:18.220Z,9.77
2023-02-19T15:51:30.062Z,9.86
2023-02-19T15:56:36.693Z,9.74
2023-02-19T16:01:40.413Z,9.76
2023-02-19T16:07:25.649Z,9.77
2023-02-19T16:12:28.303Z,9.52
2023-02-19T16:18:28.318Z,9.24
2023-02-19T16:23:34.075Z,9.17
2023-02-19T16:28:41.044Z,8.95
2023-02-19T16:33:51.919Z,8.88
2023-02-19T16:39:09.289Z,8.72
2023-02-19T16:44:35.725Z,8.67
2023-02-19T16:49:38.183Z,8.66
2023-02-19T16:54:41.006Z,8.67
2023-02-19T16:59:44.846Z,8.62
2023-02-19T17:04:49.714Z,8.42
2023-02-19T17:09:51.517Z,8.45
2023-02-19T17:15:21.587Z,8.49
2023-02-19T17:20:30.421Z,8.55
2023-02-19T17:25:34.367Z,8.58
2023-02-19T17:30:39.832Z,8.65
2023-02-19T17:35:46.872Z,8.58
2023-02-19T17:40:48.663Z,8.55
2023-02-19T17:45:52.442Z,8.72
2023-02-19T17:50:55.283Z,8.73
2023-02-19T17:55:56.983Z,8.83
2023-02-19T18:01:01.669Z,8.94
2023-02-19T18:06:03.578Z,8.82
2023-02-19T18:11:06.891Z,8.80
2023-02-19T18:16:10.372Z,8.80
2023-02-19T18:21:14.756Z,8.79
2023-02-19T18:26:20.182Z,8.82
2023-02-19T18:31:26.107Z,8.77
2023-02-19T18:36:29.925Z,8.76
2023-02-19T18:41:31.927Z,8.78
2023-02-19T18:46:36.487Z,8.79
2023-02-19T18:51:38.322Z,8.76
2023-02-19T18:56:50.224Z,8.77
2023-02-19T19:01:55.973Z,8.61
2023-02-19T19:06:57.642Z,8.56
2023-02-19T19:12:03.230Z,8.60
2023-02-19T19:17:06.084Z,8.76
2023-02-19T19:22:15.305Z,8.84
2023-02-19T19:27:20.011Z,8.67
2023-02-19T19:32:23.477Z,8.69
2023-02-19T19:37:28.527Z,8.55
2023-02-19T19:42:30.358Z,8.62
2023-02-19T19:47:32.162Z,8.56
2023-02-19T19:52:34.079Z,8.66
2023-02-19T19:57:35.855Z,8.59
2023-02-19T20:02:37.818Z,8.55
2023-02-19T20:07:39.844Z,8.59
2023-02-19T20:12:42.861Z,8.60
2023-02-19T20:17:44.571Z,8.56
2023-02-19T20:22:46.228Z,8.46
2023-02-19T20:27:49.164Z,8.43
2023-02-19T20:32:51.767Z,8.41
2023-02-19T20:37:54.708Z,8.40
2023-02-19T20:42:57.473Z,8.33
2023-02-19T20:47:59.538Z,8.19
2023-02-19T20:53:02.581Z,8.20
2023-02-19T20:58:05.136Z,8.15
2023-02-19T21:03:09.105Z,8.09
2023-02-19T21:08:12.053Z,8.16
2023-02-19T21:13:16.629Z,8.20
2023-02-19T21:18:19.959Z,8.29
2023-02-19T21:23:21.604Z,8.23
2023-02-19T21:28:24.642Z,8.18
2023-02-19T21:33:26.292Z,8.05
2023-02-19T21:38:28.152Z,8.16
2023-02-19T21:43:31.882Z,8.09
2023-02-19T21:48:33.875Z,8.11
2023-02-19T21:53:35.812Z,8.14
2023-02-19T21:58:37.520Z,8.11
2023-02-19T22:03:39.130Z,8.01
2023-02-19T22:08:41.274Z,7.96
2023-02-19T22:13:43.510Z,7.92
2023-02-19T22:18:50.068Z,7.89
2023-02-19T22:23:53.580Z,7.89
2023-02-19T22:28:55.656Z,7.87
2023-02-19T22:33:57.739Z,7.93
2023-02-19T22:39:00.505Z,7.84
2023-02-19T22:44:02.767Z,7.84
2023-02-19T22:49:06.143Z,7.89
2023-02-19T22:54:07.871Z,7.91
2023-02-19T22:59:09.742Z,7.95
2023-02-19T23:04:11.614Z,7.96
2023-02-19T23:09:22.842Z,7.91
2023-02-19T23:14:24.521Z,8.02
2023-02-19T23:19:26.510Z,7.92
2023-02-19T23:24:31.151Z,7.77
2023-02-19T23:29:34.025Z,7.76
2023-02-19T23:34:35.778Z,7.55
2023-02-19T23:39:37.494Z,7.33
2023-02-19T23:44:39.426Z,7.25
2023-02-19T23:49:41.874Z,7.15
2023-02-19T23:54:43.632Z,7.03
2023-02-19T23:59:47.330Z,7.00
